Time;durP1;ratioP1;P1;durP2;ratioP2;P2;SDS_P1;SDS_P2;PMS_P1;PMS_P2;Temp;Humidity;BMP_temperature;BMP_pressure;BME280_temperature;BME280_humidity;BME280_pressure;Samples;Min_cycle;Max_cycle;Signal;HPM_P1;HPM_P2
2022/03/18 00:00:41;;;;;;;10.35;5.45;;;;;;;;;;4984923;28;20073;-80
2022/03/18 00:03:07;;;;;;;7.72;5.22;;;;;;;;;;4989912;28;20398;-81
2022/03/18 00:05:34;;;;;;;8.55;5.63;;;;;;;;;;4985068;28;20030;-85
2022/03/18 00:08:00;;;;;;;10.93;5.50;;;;;;;;;;4986083;28;22394;-83
2022/03/18 00:10:26;;;;;;;7.90;4.93;;;;;;;;;;4985710;28;20025;-79
2022/03/18 00:12:52;;;;;;;11.32;5.68;;;;;;;;;;4985751;28;21768;-77
2022/03/18 00:15:18;;;;;;;10.52;5.43;;;;;;;;;;4981378;28;20117;-80
2022/03/18 00:17:44;;;;;;;11.80;6.25;;;;;;;;;;4985616;28;20019;-78
2022/03/18 00:20:12;;;;;;;9.40;5.68;;;;;;;;;;4985611;28;20057;-79
2022/03/18 00:22:40;;;;;;;9.45;5.47;;;;;;;;;;4981660;28;20041;-79
2022/03/18 00:25:06;;;;;;;11.35;5.78;;;;;;;;;;4977092;28;20529;-80
2022/03/18 00:27:32;;;;;;;11.55;5.88;;;;;;;;;;4984619;28;20030;-82
2022/03/18 00:29:58;;;;;;;8.50;5.75;;;;;;;;;;4979440;28;20018;-82
2022/03/18 00:32:23;;;;;;;11.07;5.70;;;;;;;;;;4978345;28;20085;-83
2022/03/18 00:34:49;;;;;;;9.93;5.70;;;;;;;;;;5010654;28;20041;-83
2022/03/18 00:37:15;;;;;;;10.93;5.88;;;;;;;;;;4975492;28;20022;-82
2022/03/18 00:39:40;;;;;;;10.27;5.28;;;;;;;;;;4980197;28;20081;-79
2022/03/18 00:42:06;;;;;;;10.60;5.57;;;;;;;;;;5008175;28;20034;-79
2022/03/18 00:44:31;;;;;;;9.55;5.47;;;;;;;;;;4979386;28;20133;-83
2022/03/18 00:46:57;;;;;;;9.30;4.93;;;;;;;;;;5008396;28;20086;-79
2022/03/18 00:52:07;;;;;;;11.68;5.65;;;;;;;;;;4976554;28;20131;-82
2022/03/18 00:54:39;;;;;;;9.75;5.70;;;;;;;;;;4982186;28;20380;-79
2022/03/18 00:57:06;;;;;;;10.50;5.17;;;;;;;;;;5013889;28;20022;-79
2022/03/18 00:59:32;;;;;;;9.63;5.47;;;;;;;;;;4993538;28;20438;-83
2022/03/18 01:01:58;;;;;;;8.90;4.68;;;;;;;;;;4985743;28;20019;-80
2022/03/18 01:04:25;;;;;;;12.05;5.07;;;;;;;;;;4979900;28;20092;-79
2022/03/18 01:06:52;;;;;;;8.48;4.63;;;;;;;;;;4985572;28;20052;-84
2022/03/18 01:09:19;;;;;;;8.27;4.57;;;;;;;;;;5014145;28;20028;-83
2022/03/18 01:11:46;;;;;;;6.72;4.85;;;;;;;;;;4983923;28;20018;-78
2022/03/18 01:14:12;;;;;;;7.32;4.82;;;;;;;;;;4977328;28;20113;-79
2022/03/18 01:16:37;;;;;;;8.07;4.50;;;;;;;;;;4985368;28;20443;-78
2022/03/18 01:19:03;;;;;;;9.85;4.97;;;;;;;;;;4983285;28;20041;-84
2022/03/18 01:21:28;;;;;;;8.68;4.70;;;;;;;;;;4984285;28;20049;-78
2022/03/18 01:23:53;;;;;;;9.55;4.72;;;;;;;;;;4982563;28;20487;-82
2022/03/18 01:26:18;;;;;;;8.65;4.47;;;;;;;;;;4981700;28;20043;-78
2022/03/18 01:28:44;;;;;;;9.20;5.32;;;;;;;;;;5011855;28;21777;-78
2022/03/18 01:31:09;;;;;;;11.13;5.75;;;;;;;;;;4979006;28;20446;-79
2022/03/18 01:33:36;;;;;;;9.07;4.93;;;;;;;;;;4981974;28;20081;-85
2022/03/18 01:36:06;;;;;;;10.00;5.15;;;;;;;;;;4982750;28;20467;-84
2022/03/18 01:38:31;;;;;;;8.77;4.88;;;;;;;;;;4984642;28;20050;-84
2022/03/18 01:40:57;;;;;;;9.48;5.07;;;;;;;;;;4980397;28;20546;-82
2022/03/18 01:43:22;;;;;;;9.23;5.15;;;;;;;;;;5014201;28;20470;-78
2022/03/18 01:45:50;;;;;;;10.85;5.28;;;;;;;;;;4960880;28;20046;-83
2022/03/18 01:48:15;;;;;;;8.70;5.78;;;;;;;;;;4963938;28;20368;-78
2022/03/18 01:50:41;;;;;;;9.13;6.05;;;;;;;;;;4962584;28;20089;-77
2022/03/18 01:53:07;;;;;;;10.27;5.38;;;;;;;;;;4962671;28;20097;-82
2022/03/18 01:55:32;;;;;;;9.30;6.00;;;;;;;;;;4992505;28;20045;-82
2022/03/18 01:57:58;;;;;;;10.02;5.85;;;;;;;;;;4960229;28;20023;-79
2022/03/18 02:00:24;;;;;;;10.38;6.00;;;;;;;;;;4965346;28;20022;-79
2022/03/18 02:02:51;;;;;;;9.05;5.93;;;;;;;;;;4991945;28;20038;-78
2022/03/18 02:05:17;;;;;;;9.75;6.05;;;;;;;;;;4991423;28;20053;-81
2022/03/18 02:07:44;;;;;;;10.07;5.70;;;;;;;;;;4958834;28;20030;-79
2022/03/18 02:10:09;;;;;;;8.68;5.65;;;;;;;;;;4994877;28;21125;-77
2022/03/18 02:12:35;;;;;;;10.27;5.88;;;;;;;;;;4992940;28;20117;-78
2022/03/18 02:15:01;;;;;;;9.10;5.78;;;;;;;;;;4989536;28;20233;-79
2022/03/18 02:17:27;;;;;;;13.15;6.20;;;;;;;;;;4961023;28;20382;-84
2022/03/18 02:19:52;;;;;;;12.07;5.93;;;;;;;;;;4960965;28;20034;-78
2022/03/18 02:22:22;;;;;;;12.20;5.95;;;;;;;;;;4963272;28;20085;-83
2022/03/18 02:24:50;;;;;;;10.80;5.93;;;;;;;;;;4992229;28;20031;-77
2022/03/18 02:27:16;;;;;;;9.70;5.78;;;;;;;;;;4994708;28;20019;-82
2022/03/18 02:29:43;;;;;;;10.48;5.40;;;;;;;;;;4967788;28;20043;-83
2022/03/18 02:32:09;;;;;;;10.30;5.45;;;;;;;;;;4990250;28;20027;-84
2022/03/18 02:34:37;;;;;;;9.70;4.93;;;;;;;;;;4975838;28;20038;-81
2022/03/18 02:37:03;;;;;;;10.63;5.57;;;;;;;;;;4960071;28;20031;-79
2022/03/18 02:39:29;;;;;;;12.13;5.30;;;;;;;;;;4962588;28;21341;-84
2022/03/18 02:41:54;;;;;;;10.25;5.55;;;;;;;;;;4958206;28;20031;-84
2022/03/18 02:44:20;;;;;;;11.15;5.43;;;;;;;;;;4969093;28;20101;-80
2022/03/18 02:46:45;;;;;;;10.15;4.90;;;;;;;;;;5010625;28;20045;-79
2022/03/18 02:49:11;;;;;;;9.50;5.18;;;;;;;;;;4982059;28;20034;-78
2022/03/18 02:51:37;;;;;;;10.32;5.15;;;;;;;;;;4977087;28;20030;-84
2022/03/18 02:54:04;;;;;;;8.98;5.10;;;;;;;;;;4983181;28;20027;-83
2022/03/18 02:56:30;;;;;;;11.18;5.03;;;;;;;;;;5011318;28;20030;-78
2022/03/18 02:58:55;;;;;;;11.70;4.82;;;;;;;;;;4983732;28;20453;-78
2022/03/18 03:01:21;;;;;;;10.10;4.90;;;;;;;;;;4981735;28;20081;-78
2022/03/18 03:03:46;;;;;;;10.18;4.65;;;;;;;;;;4998224;28;20501;-83
2022/03/18 03:08:55;;;;;;;11.20;5.07;;;;;;;;;;4980080;28;20113;-81
2022/03/18 03:11:22;;;;;;;8.98;5.00;;;;;;;;;;4986144;28;20121;-84
2022/03/18 03:13:48;;;;;;;8.05;4.55;;;;;;;;;;4981797;28;20505;-84
2022/03/18 03:16:13;;;;;;;7.65;4.28;;;;;;;;;;4984502;28;20027;-79
2022/03/18 03:18:39;;;;;;;9.73;4.82;;;;;;;;;;4985311;28;20548;-78
2022/03/18 03:21:04;;;;;;;9.80;4.80;;;;;;;;;;4998024;28;20034;-83
2022/03/18 03:23:29;;;;;;;10.25;5.00;;;;;;;;;;4981234;28;20038;-79
2022/03/18 03:25:55;;;;;;;8.98;4.97;;;;;;;;;;4987548;28;20487;-79
2022/03/18 03:28:22;;;;;;;8.70;5.10;;;;;;;;;;5019105;28;20062;-82
2022/03/18 03:30:48;;;;;;;8.45;4.82;;;;;;;;;;4990061;28;20038;-85
2022/03/18 03:33:14;;;;;;;9.93;5.25;;;;;;;;;;4980857;28;20113;-81
2022/03/18 03:35:40;;;;;;;9.65;5.20;;;;;;;;;;4985859;28;20471;-80
2022/03/18 03:38:06;;;;;;;8.50;5.05;;;;;;;;;;5018133;28;20037;-78
2022/03/18 03:40:33;;;;;;;8.35;4.57;;;;;;;;;;4987267;28;20387;-78
2022/03/18 03:42:59;;;;;;;8.85;4.68;;;;;;;;;;4985801;28;20073;-85
2022/03/18 03:45:24;;;;;;;9.18;5.00;;;;;;;;;;5020351;28;20462;-85
2022/03/18 03:47:50;;;;;;;9.25;4.63;;;;;;;;;;4990594;28;20026;-80
2022/03/18 03:50:17;;;;;;;9.18;4.85;;;;;;;;;;4984446;28;20040;-79
2022/03/18 03:52:43;;;;;;;8.45;4.60;;;;;;;;;;4988327;28;20065;-77
2022/03/18 03:55:10;;;;;;;8.38;4.90;;;;;;;;;;4988737;28;20038;-79
2022/03/18 03:57:36;;;;;;;8.93;5.00;;;;;;;;;;4990858;28;20394;-78
2022/03/18 04:00:04;;;;;;;8.25;5.18;;;;;;;;;;5015970;28;20045;-81
2022/03/18 04:02:29;;;;;;;8.70;5.05;;;;;;;;;;5019367;28;20026;-85
2022/03/18 04:04:54;;;;;;;9.45;5.10;;;;;;;;;;4985443;28;20442;-85
2022/03/18 04:07:19;;;;;;;8.77;4.63;;;;;;;;;;4990933;28;20038;-84
2022/03/18 04:09:49;;;;;;;9.05;5.18;;;;;;;;;;4987751;28;20018;-83
2022/03/18 04:12:15;;;;;;;7.60;5.13;;;;;;;;;;4983462;28;20065;-79
2022/03/18 04:14:40;;;;;;;10.38;4.85;;;;;;;;;;4988265;28;20058;-78
2022/03/18 04:17:06;;;;;;;8.25;4.72;;;;;;;;;;4987181;28;20113;-79
2022/03/18 04:19:31;;;;;;;9.27;4.82;;;;;;;;;;4986813;28;20033;-85
2022/03/18 04:21:56;;;;;;;8.60;4.80;;;;;;;;;;4987697;28;20117;-85
2022/03/18 04:24:21;;;;;;;8.32;4.72;;;;;;;;;;4985673;28;20030;-79
2022/03/18 04:26:47;;;;;;;9.23;4.43;;;;;;;;;;5017529;28;20843;-78
2022/03/18 04:29:13;;;;;;;9.40;4.75;;;;;;;;;;5018779;28;20045;-79
2022/03/18 04:31:39;;;;;;;8.40;5.00;;;;;;;;;;5021147;28;20037;-84
2022/03/18 04:34:04;;;;;;;8.73;4.70;;;;;;;;;;4983007;28;20409;-82
2022/03/18 04:36:30;;;;;;;7.72;4.45;;;;;;;;;;4988174;28;20038;-79
2022/03/18 04:38:58;;;;;;;9.52;5.07;;;;;;;;;;4986770;28;20041;-80
2022/03/18 04:41:24;;;;;;;7.93;5.15;;;;;;;;;;4983322;28;20118;-79
2022/03/18 04:43:49;;;;;;;10.65;5.30;;;;;;;;;;4990594;28;20109;-79
2022/03/18 04:46:15;;;;;;;7.88;4.75;;;;;;;;;;4989486;28;20022;-79
2022/03/18 04:48:40;;;;;;;7.70;4.70;;;;;;;;;;4989924;28;20026;-79
2022/03/18 04:51:05;;;;;;;10.05;4.80;;;;;;;;;;4985856;28;20036;-80
2022/03/18 04:53:31;;;;;;;8.32;4.80;;;;;;;;;;4990306;28;20109;-85
2022/03/18 04:55:56;;;;;;;7.45;5.13;;;;;;;;;;4986328;28;20126;-79
2022/03/18 04:58:21;;;;;;;9.45;5.03;;;;;;;;;;4983241;28;20029;-82
2022/03/18 05:00:47;;;;;;;7.72;4.80;;;;;;;;;;4985221;28;20026;-78
2022/03/18 05:03:12;;;;;;;8.60;4.80;;;;;;;;;;5016177;28;20065;-78
2022/03/18 05:05:38;;;;;;;10.07;5.57;;;;;;;;;;4982216;28;20030;-78
2022/03/18 05:08:04;;;;;;;10.80;5.28;;;;;;;;;;5017991;28;20030;-83
2022/03/18 05:10:30;;;;;;;8.48;5.22;;;;;;;;;;4986369;28;20034;-79
2022/03/18 05:12:55;;;;;;;8.15;4.75;;;;;;;;;;4988216;28;20026;-84
2022/03/18 05:15:21;;;;;;;8.13;4.88;;;;;;;;;;4986958;28;20026;-79
2022/03/18 05:17:52;;;;;;;7.03;4.53;;;;;;;;;;4983825;28;20073;-78
2022/03/18 05:20:18;;;;;;;7.70;4.95;;;;;;;;;;4987034;28;20498;-82
2022/03/18 05:22:45;;;;;;;8.50;5.35;;;;;;;;;;4982072;28;20486;-79
2022/03/18 05:25:11;;;;;;;9.25;5.00;;;;;;;;;;4980189;28;20093;-78
2022/03/18 05:27:44;;;;;;;12.48;5.00;;;;;;;;;;4984967;28;20062;-84
2022/03/18 05:30:12;;;;;;;10.80;5.30;;;;;;;;;;4985469;28;20027;-79
2022/03/18 05:32:40;;;;;;;8.75;5.03;;;;;;;;;;4986583;28;20035;-82
2022/03/18 05:35:05;;;;;;;8.60;4.90;;;;;;;;;;4984871;28;20046;-86
2022/03/18 05:37:31;;;;;;;10.85;4.95;;;;;;;;;;4984668;28;20038;-81
2022/03/18 05:39:56;;;;;;;7.18;4.75;;;;;;;;;;4982391;28;20043;-77
2022/03/18 05:42:21;;;;;;;7.35;5.00;;;;;;;;;;4982136;28;20154;-77
2022/03/18 05:44:47;;;;;;;8.73;4.95;;;;;;;;;;4981716;28;20049;-82
2022/03/18 05:47:12;;;;;;;9.55;4.88;;;;;;;;;;4983142;28;20034;-79
2022/03/18 05:49:37;;;;;;;11.30;5.30;;;;;;;;;;4982996;28;20442;-85
2022/03/18 05:52:03;;;;;;;8.68;5.55;;;;;;;;;;4988384;28;20467;-79
2022/03/18 05:54:28;;;;;;;10.88;5.70;;;;;;;;;;4982866;28;20061;-79
2022/03/18 05:56:54;;;;;;;10.30;4.95;;;;;;;;;;4982510;28;20019;-78
2022/03/18 05:59:32;;;;;;;11.60;6.10;;;;;;;;;;4987126;28;20034;-85
2022/03/18 06:01:59;;;;;;;10.38;6.28;;;;;;;;;;5012999;28;20079;-81
2022/03/18 06:04:25;;;;;;;11.10;6.35;;;;;;;;;;4999699;28;20478;-80
2022/03/18 06:06:51;;;;;;;10.05;5.80;;;;;;;;;;4982918;28;20060;-78
2022/03/18 06:12:03;;;;;;;10.70;5.93;;;;;;;;;;5006432;28;20049;-79
2022/03/18 06:14:29;;;;;;;12.18;6.07;;;;;;;;;;5011005;28;21162;-78
2022/03/18 06:16:57;;;;;;;10.25;6.03;;;;;;;;;;4984863;28;20034;-82
2022/03/18 06:19:24;;;;;;;11.55;5.85;;;;;;;;;;4983118;28;20038;-78
2022/03/18 06:21:50;;;;;;;9.55;6.05;;;;;;;;;;4987603;28;20113;-78
2022/03/18 06:24:17;;;;;;;10.13;5.93;;;;;;;;;;4984244;28;20042;-80
2022/03/18 06:26:43;;;;;;;9.43;6.20;;;;;;;;;;4983169;28;20443;-79
2022/03/18 06:29:08;;;;;;;11.05;5.72;;;;;;;;;;4982317;28;20033;-78
2022/03/18 06:31:35;;;;;;;8.60;5.63;;;;;;;;;;4980300;28;20034;-78
2022/03/18 06:34:01;;;;;;;8.68;5.90;;;;;;;;;;5014428;28;20046;-85
2022/03/18 06:36:28;;;;;;;10.95;5.70;;;;;;;;;;4984252;28;20785;-79
2022/03/18 06:38:53;;;;;;;10.18;5.50;;;;;;;;;;4987411;28;20087;-85
2022/03/18 06:41:19;;;;;;;8.13;5.07;;;;;;;;;;4988340;28;20034;-78
2022/03/18 06:43:46;;;;;;;8.57;5.28;;;;;;;;;;4992310;28;20026;-83
2022/03/18 06:46:11;;;;;;;15.65;6.13;;;;;;;;;;4986362;28;20470;-78
2022/03/18 06:48:36;;;;;;;9.85;5.95;;;;;;;;;;4988576;28;20136;-79
2022/03/18 06:51:02;;;;;;;8.95;5.60;;;;;;;;;;4990772;28;20121;-82
2022/03/18 06:53:28;;;;;;;10.77;5.55;;;;;;;;;;5022901;28;20048;-83
2022/03/18 06:55:53;;;;;;;11.23;5.40;;;;;;;;;;4996691;28;20034;-79
2022/03/18 06:58:18;;;;;;;9.90;5.38;;;;;;;;;;4991071;28;20398;-79
2022/03/18 07:00:43;;;;;;;9.35;5.38;;;;;;;;;;5022038;28;20033;-82
2022/03/18 07:03:09;;;;;;;9.88;6.10;;;;;;;;;;4993372;28;20429;-79
2022/03/18 07:05:34;;;;;;;8.68;5.95;;;;;;;;;;4992909;28;20395;-85
2022/03/18 07:08:00;;;;;;;10.32;5.53;;;;;;;;;;4993769;28;20122;-79
2022/03/18 07:10:25;;;;;;;12.00;5.90;;;;;;;;;;4991083;28;20033;-79
2022/03/18 07:12:50;;;;;;;10.55;6.20;;;;;;;;;;4989461;28;20023;-79
2022/03/18 07:15:16;;;;;;;10.00;6.53;;;;;;;;;;4991158;28;20040;-83
2022/03/18 07:17:59;;;;;;;11.15;6.30;;;;;;;;;;4991458;28;20034;-83
2022/03/18 07:20:45;;;;;;;11.18;6.10;;;;;;;;;;4988090;28;20029;-83
2022/03/18 07:23:16;;;;;;;10.20;5.85;;;;;;;;;;4986857;28;20046;-84
2022/03/18 07:25:44;;;;;;;10.38;6.25;;;;;;;;;;5014901;28;20026;-79
2022/03/18 07:28:12;;;;;;;13.80;6.60;;;;;;;;;;5015906;28;20109;-84
2022/03/18 07:30:40;;;;;;;10.68;6.53;;;;;;;;;;4989996;28;20030;-82
2022/03/18 07:33:05;;;;;;;8.95;5.80;;;;;;;;;;4985370;28;20402;-80
2022/03/18 07:35:32;;;;;;;11.25;6.40;;;;;;;;;;4984106;28;20023;-77
2022/03/18 07:37:57;;;;;;;9.90;6.25;;;;;;;;;;4980885;28;20533;-79
2022/03/18 07:40:23;;;;;;;10.57;6.85;;;;;;;;;;5022996;28;20026;-85
2022/03/18 07:42:50;;;;;;;10.25;6.60;;;;;;;;;;4988268;28;20490;-81
2022/03/18 07:45:19;;;;;;;12.85;7.28;;;;;;;;;;4990420;28;20045;-81
2022/03/18 07:47:44;;;;;;;15.73;7.53;;;;;;;;;;4990103;28;20031;-79
2022/03/18 07:50:10;;;;;;;12.93;7.47;;;;;;;;;;5023163;28;20683;-84
2022/03/18 07:52:35;;;;;;;14.70;7.65;;;;;;;;;;4990934;28;20037;-81
2022/03/18 07:55:01;;;;;;;12.48;8.15;;;;;;;;;;4989088;28;20321;-80
2022/03/18 07:57:27;;;;;;;14.13;8.35;;;;;;;;;;4990208;28;20418;-84
2022/03/18 07:59:53;;;;;;;13.70;9.10;;;;;;;;;;4990154;28;20034;-78
2022/03/18 08:02:18;;;;;;;16.05;9.07;;;;;;;;;;4989299;28;20604;-79
2022/03/18 08:04:45;;;;;;;18.42;10.38;;;;;;;;;;5021863;28;20552;-83
2022/03/18 08:07:10;;;;;;;16.05;9.35;;;;;;;;;;4986526;28;20030;-79
2022/03/18 08:09:36;;;;;;;17.30;9.18;;;;;;;;;;4992116;28;20041;-80
2022/03/18 08:12:02;;;;;;;22.00;9.30;;;;;;;;;;4988021;28;20554;-87
2022/03/18 08:14:27;;;;;;;14.20;7.18;;;;;;;;;;5021923;28;20042;-82
2022/03/18 08:16:53;;;;;;;10.95;6.75;;;;;;;;;;4989606;28;20037;-84
2022/03/18 08:19:18;;;;;;;12.27;6.85;;;;;;;;;;5021331;28;20029;-82
2022/03/18 08:21:43;;;;;;;11.73;6.30;;;;;;;;;;4988945;28;20049;-77
2022/03/18 08:24:09;;;;;;;14.18;6.90;;;;;;;;;;4984167;28;20018;-80
2022/03/18 08:26:37;;;;;;;11.85;6.57;;;;;;;;;;4984231;28;20507;-86
2022/03/18 08:29:04;;;;;;;11.13;5.30;;;;;;;;;;4990277;28;20061;-86
2022/03/18 08:31:33;;;;;;;8.90;4.40;;;;;;;;;;5023161;28;20084;-86
2022/03/18 08:33:59;;;;;;;10.77;4.95;;;;;;;;;;5015292;28;20053;-85
2022/03/18 08:36:24;;;;;;;10.05;4.43;;;;;;;;;;4985570;28;20419;-79
2022/03/18 08:38:50;;;;;;;11.80;4.85;;;;;;;;;;4992857;28;20030;-83
2022/03/18 08:41:15;;;;;;;10.68;5.00;;;;;;;;;;4987734;28;20391;-83
2022/03/18 08:43:40;;;;;;;12.23;4.70;;;;;;;;;;4990217;28;20026;-78
2022/03/18 08:46:06;;;;;;;9.60;4.13;;;;;;;;;;4991211;28;20078;-84
2022/03/18 08:48:31;;;;;;;9.95;4.53;;;;;;;;;;4989508;28;20046;-83
2022/03/18 08:50:56;;;;;;;13.25;4.43;;;;;;;;;;4991075;28;20133;-78
2022/03/18 08:53:22;;;;;;;10.35;4.20;;;;;;;;;;4988327;28;20478;-84
2022/03/18 08:55:47;;;;;;;11.32;3.40;;;;;;;;;;4985891;28;20403;-84
2022/03/18 08:58:14;;;;;;;7.40;3.53;;;;;;;;;;5024082;28;20102;-84
2022/03/18 09:00:39;;;;;;;9.63;3.30;;;;;;;;;;4988449;28;20022;-84
2022/03/18 09:03:05;;;;;;;6.60;2.75;;;;;;;;;;4986851;28;20026;-77
2022/03/18 09:05:30;;;;;;;7.28;2.47;;;;;;;;;;4988777;28;20033;-81
2022/03/18 09:07:56;;;;;;;6.75;2.38;;;;;;;;;;5019424;28;20021;-81
2022/03/18 09:10:21;;;;;;;7.57;2.17;;;;;;;;;;4991255;28;20084;-86
2022/03/18 09:12:48;;;;;;;7.78;2.92;;;;;;;;;;4991029;28;20121;-82
2022/03/18 09:15:14;;;;;;;6.78;2.65;;;;;;;;;;4992079;28;20022;-81
2022/03/18 09:17:40;;;;;;;6.80;2.80;;;;;;;;;;4991777;28;20030;-87
2022/03/18 09:20:06;;;;;;;6.18;1.95;;;;;;;;;;4991614;28;20018;-81
2022/03/18 09:22:31;;;;;;;4.28;1.45;;;;;;;;;;4989877;28;20022;-86
2022/03/18 09:24:57;;;;;;;7.30;2.35;;;;;;;;;;5021152;28;20038;-88
2022/03/18 09:27:22;;;;;;;4.35;1.13;;;;;;;;;;4989531;28;20023;-84
2022/03/18 09:29:48;;;;;;;6.03;1.40;;;;;;;;;;5019984;28;20037;-88
2022/03/18 09:32:15;;;;;;;3.65;1.30;;;;;;;;;;4987386;28;20028;-86
2022/03/18 09:34:40;;;;;;;4.50;1.77;;;;;;;;;;4992893;28;20022;-81
2022/03/18 09:37:06;;;;;;;8.15;2.25;;;;;;;;;;4992655;28;20026;-85
2022/03/18 09:39:32;;;;;;;7.05;2.00;;;;;;;;;;4988629;28;20060;-85
2022/03/18 09:41:57;;;;;;;8.50;2.17;;;;;;;;;;4987620;28;20037;-78
2022/03/18 09:44:22;;;;;;;6.90;2.42;;;;;;;;;;4990410;28;20446;-86
2022/03/18 09:46:50;;;;;;;10.38;2.58;;;;;;;;;;4987955;28;20110;-80
2022/03/18 09:49:18;;;;;;;5.43;2.30;;;;;;;;;;4989823;28;20057;-80
2022/03/18 09:51:44;;;;;;;6.25;2.30;;;;;;;;;;4987716;28;20430;-85
2022/03/18 09:54:11;;;;;;;6.32;2.30;;;;;;;;;;4990146;28;20046;-79
2022/03/18 09:56:42;;;;;;;5.75;2.53;;;;;;;;;;4985140;28;20101;-77
2022/03/18 09:59:08;;;;;;;6.07;2.22;;;;;;;;;;4988922;28;20052;-77
2022/03/18 10:01:34;;;;;;;10.05;2.88;;;;;;;;;;4986067;28;20502;-87
2022/03/18 10:04:04;;;;;;;7.05;2.40;;;;;;;;;;5020197;28;20076;-77
2022/03/18 10:06:31;;;;;;;5.68;2.38;;;;;;;;;;4990372;28;20501;-82
2022/03/18 10:08:58;;;;;;;6.10;1.80;;;;;;;;;;4989022;28;20121;-86
2022/03/18 10:11:37;;;;;;;8.18;2.58;;;;;;;;;;4986921;28;20110;-82
2022/03/18 10:14:15;;;;;;;7.28;2.20;;;;;;;;;;5004878;28;20034;-81
2022/03/18 10:16:43;;;;;;;8.18;1.90;;;;;;;;;;4992230;28;20036;-81
2022/03/18 10:19:14;;;;;;;7.45;2.40;;;;;;;;;;5023021;28;20146;-81
2022/03/18 10:22:00;;;;;;;7.30;1.90;;;;;;;;;;4988759;28;20033;-85
2022/03/18 10:24:36;;;;;;;6.72;2.10;;;;;;;;;;4989444;28;20026;-85
2022/03/18 10:27:08;;;;;;;5.65;2.00;;;;;;;;;;4985760;28;20463;-88
2022/03/18 10:29:42;;;;;;;6.38;2.17;;;;;;;;;;4988600;28;20042;-80
2022/03/18 10:32:08;;;;;;;7.25;2.50;;;;;;;;;;5000919;28;20030;-80
2022/03/18 10:37:25;;;;;;;7.60;2.92;;;;;;;;;;4986616;28;20457;-87
2022/03/18 10:39:58;;;;;;;6.50;2.95;;;;;;;;;;4990140;28;20038;-80
2022/03/18 10:42:24;;;;;;;10.50;3.72;;;;;;;;;;4985438;28;20029;-85
2022/03/18 10:44:51;;;;;;;6.68;3.10;;;;;;;;;;5003386;28;20046;-81
2022/03/18 10:47:41;;;;;;;10.70;3.65;;;;;;;;;;4988996;28;20700;-86
2022/03/18 10:50:10;;;;;;;7.82;3.20;;;;;;;;;;4987819;28;20386;-81
2022/03/18 10:52:36;;;;;;;6.60;3.25;;;;;;;;;;4989979;28;20401;-81
2022/03/18 10:55:20;;;;;;;6.75;3.20;;;;;;;;;;4989861;28;20109;-81
2022/03/18 10:57:54;;;;;;;8.20;3.13;;;;;;;;;;4985426;28;20485;-81
2022/03/18 11:00:21;;;;;;;8.98;3.05;;;;;;;;;;4988070;28;20022;-81
2022/03/18 11:02:49;;;;;;;9.23;3.15;;;;;;;;;;4981955;28;20134;-80
2022/03/18 11:05:19;;;;;;;7.88;3.25;;;;;;;;;;4988749;28;20015;-81
2022/03/18 11:07:45;;;;;;;8.85;3.10;;;;;;;;;;5021564;28;20029;-81
2022/03/18 11:12:59;;;;;;;9.18;2.88;;;;;;;;;;4992829;28;20033;-80
2022/03/18 11:15:25;;;;;;;5.78;2.78;;;;;;;;;;4989179;28;20026;-80
2022/03/18 11:17:51;;;;;;;9.07;2.50;;;;;;;;;;4987044;28;20363;-78
2022/03/18 11:20:20;;;;;;;7.22;2.70;;;;;;;;;;4988740;28;20387;-79
2022/03/18 11:22:47;;;;;;;5.82;2.70;;;;;;;;;;4989669;28;20026;-84
2022/03/18 11:25:15;;;;;;;8.07;2.95;;;;;;;;;;4990563;28;20482;-78
2022/03/18 11:27:44;;;;;;;7.63;2.80;;;;;;;;;;4991499;28;20578;-80
2022/03/18 11:30:31;;;;;;;8.68;3.03;;;;;;;;;;4987280;28;20026;-85
2022/03/18 11:33:06;;;;;;;8.18;2.75;;;;;;;;;;4992344;28;20037;-83
2022/03/18 11:35:49;;;;;;;9.30;3.28;;;;;;;;;;4990895;28;20487;-85
2022/03/18 11:38:21;;;;;;;8.60;2.90;;;;;;;;;;5009226;28;20105;-85
2022/03/18 11:40:57;;;;;;;6.40;2.85;;;;;;;;;;4993254;28;20033;-84
2022/03/18 11:43:29;;;;;;;6.85;3.15;;;;;;;;;;4990202;28;20430;-85
2022/03/18 11:49:05;;;;;;;6.60;2.83;;;;;;;;;;4989709;28;20042;-83
2022/03/18 11:51:36;;;;;;;8.88;2.90;;;;;;;;;;4992710;28;20402;-82
2022/03/18 11:54:05;;;;;;;6.95;2.85;;;;;;;;;;4991906;28;20022;-83
2022/03/18 11:56:43;;;;;;;8.55;3.38;;;;;;;;;;4992651;28;20037;-78
2022/03/18 11:59:24;;;;;;;9.63;3.80;;;;;;;;;;4991019;28;20069;-83
2022/03/18 12:02:11;;;;;;;9.30;3.53;;;;;;;;;;4994110;28;20038;-83
2022/03/18 12:04:39;;;;;;;8.48;3.45;;;;;;;;;;4994465;28;20048;-79
2022/03/18 12:07:24;;;;;;;6.07;3.83;;;;;;;;;;4989900;28;20050;-80
2022/03/18 12:10:00;;;;;;;8.00;3.70;;;;;;;;;;4986265;28;20034;-84
2022/03/18 12:12:37;;;;;;;8.63;3.78;;;;;;;;;;5005344;28;20026;-80
2022/03/18 12:15:05;;;;;;;9.88;3.70;;;;;;;;;;5020967;28;20093;-79
2022/03/18 12:17:39;;;;;;;10.75;3.95;;;;;;;;;;4987298;28;20394;-83
2022/03/18 12:20:06;;;;;;;8.18;3.70;;;;;;;;;;5022322;28;20533;-78
2022/03/18 12:22:37;;;;;;;7.25;3.65;;;;;;;;;;4989702;28;20483;-83
2022/03/18 12:25:04;;;;;;;8.32;3.95;;;;;;;;;;4987831;28;20101;-80
2022/03/18 12:27:36;;;;;;;9.75;4.10;;;;;;;;;;5021378;28;20512;-83
2022/03/18 12:30:04;;;;;;;6.53;4.00;;;;;;;;;;5018770;28;20038;-83
2022/03/18 12:32:30;;;;;;;8.20;4.07;;;;;;;;;;4990713;28;20093;-83
2022/03/18 12:34:56;;;;;;;9.68;3.40;;;;;;;;;;4989407;28;20490;-80
2022/03/18 12:37:24;;;;;;;12.27;4.00;;;;;;;;;;4989932;28;20102;-78
2022/03/18 12:40:11;;;;;;;6.57;3.60;;;;;;;;;;4990396;28;20084;-86
2022/03/18 12:42:56;;;;;;;7.80;4.00;;;;;;;;;;4989067;28;20027;-83
2022/03/18 12:45:38;;;;;;;8.32;3.38;;;;;;;;;;4989212;28;20121;-81
2022/03/18 12:48:06;;;;;;;9.48;3.50;;;;;;;;;;4991479;28;20018;-84
2022/03/18 12:50:42;;;;;;;9.48;3.50;;;;;;;;;;4991526;28;20060;-86
2022/03/18 12:53:19;;;;;;;9.70;3.53;;;;;;;;;;4991566;28;20030;-81
2022/03/18 12:55:46;;;;;;;7.63;3.50;;;;;;;;;;4989029;28;20109;-84
2022/03/18 12:58:13;;;;;;;8.23;3.58;;;;;;;;;;5013447;28;20030;-81
2022/03/18 13:00:56;;;;;;;8.98;3.88;;;;;;;;;;4989375;28;20034;-81
2022/03/18 13:03:27;;;;;;;9.15;4.18;;;;;;;;;;4983162;28;20116;-80
2022/03/18 13:05:55;;;;;;;8.43;4.13;;;;;;;;;;5015268;28;20041;-84
2022/03/18 13:08:22;;;;;;;8.65;3.70;;;;;;;;;;4989245;28;20033;-83
2022/03/18 13:10:55;;;;;;;8.90;4.05;;;;;;;;;;4987650;28;20369;-80
2022/03/18 13:13:21;;;;;;;8.88;3.40;;;;;;;;;;4988665;28;20042;-80
2022/03/18 13:15:57;;;;;;;7.55;3.78;;;;;;;;;;5018195;28;20029;-79
2022/03/18 13:18:23;;;;;;;8.98;3.70;;;;;;;;;;4990552;28;20460;-84
2022/03/18 13:20:48;;;;;;;7.85;3.60;;;;;;;;;;4988581;28;20049;-80
2022/03/18 13:23:19;;;;;;;8.38;3.75;;;;;;;;;;4986548;28;20493;-85
2022/03/18 13:25:44;;;;;;;7.60;3.13;;;;;;;;;;4987306;28;20051;-79
2022/03/18 13:28:10;;;;;;;7.22;3.40;;;;;;;;;;4990190;28;20025;-84
2022/03/18 13:33:20;;;;;;;6.40;3.63;;;;;;;;;;4989092;28;20131;-80
2022/03/18 13:35:49;;;;;;;8.15;3.28;;;;;;;;;;4988642;28;20057;-81
2022/03/18 13:38:20;;;;;;;7.10;3.15;;;;;;;;;;4990623;28;20037;-84
2022/03/18 13:41:03;;;;;;;6.75;3.10;;;;;;;;;;5022950;28;20022;-79
2022/03/18 13:43:32;;;;;;;7.93;3.90;;;;;;;;;;4985278;28;20046;-80
2022/03/18 13:46:17;;;;;;;7.40;3.30;;;;;;;;;;5002168;28;20069;-80
2022/03/18 13:48:45;;;;;;;7.75;3.53;;;;;;;;;;4987550;28;20487;-85
2022/03/18 13:51:12;;;;;;;8.43;3.75;;;;;;;;;;4984610;28;20061;-80
2022/03/18 13:53:39;;;;;;;6.55;3.60;;;;;;;;;;4986915;28;20068;-86
2022/03/18 13:56:18;;;;;;;7.63;3.40;;;;;;;;;;5019682;28;20126;-87
2022/03/18 13:58:45;;;;;;;6.60;3.08;;;;;;;;;;5021921;28;20486;-80
2022/03/18 14:01:18;;;;;;;6.20;3.40;;;;;;;;;;4987068;28;20026;-87
2022/03/18 14:03:53;;;;;;;6.93;3.53;;;;;;;;;;4985528;28;20032;-85
2022/03/18 14:06:19;;;;;;;6.57;3.00;;;;;;;;;;4988485;28;20041;-82
2022/03/18 14:08:45;;;;;;;6.00;3.00;;;;;;;;;;4986230;28;20064;-86
2022/03/18 14:14:31;;;;;;;6.65;3.25;;;;;;;;;;4991789;28;20048;-86
2022/03/18 14:17:10;;;;;;;6.72;3.20;;;;;;;;;;4986313;28;20106;-80
2022/03/18 14:19:41;;;;;;;9.52;3.55;;;;;;;;;;5017064;28;20030;-79
2022/03/18 14:22:07;;;;;;;6.68;3.38;;;;;;;;;;5003912;28;20513;-79
2022/03/18 14:24:32;;;;;;;6.90;3.50;;;;;;;;;;4985203;28;20030;-85
2022/03/18 14:26:58;;;;;;;8.07;3.17;;;;;;;;;;4984844;28;20554;-85
2022/03/18 14:29:31;;;;;;;5.78;3.33;;;;;;;;;;4985245;28;20034;-81
2022/03/18 14:31:57;;;;;;;6.78;3.20;;;;;;;;;;4990558;28;20026;-80
2022/03/18 14:34:22;;;;;;;7.38;3.40;;;;;;;;;;4988570;28;20023;-79
2022/03/18 14:36:47;;;;;;;6.72;3.55;;;;;;;;;;4988553;28;20038;-86
2022/03/18 14:39:13;;;;;;;10.43;3.75;;;;;;;;;;4988399;28;20046;-81
2022/03/18 14:41:38;;;;;;;7.90;3.90;;;;;;;;;;4990257;28;20550;-83
2022/03/18 14:44:04;;;;;;;8.18;3.60;;;;;;;;;;5019238;28;20030;-87
2022/03/18 14:46:30;;;;;;;8.65;3.78;;;;;;;;;;4988109;28;20039;-87
2022/03/18 14:48:55;;;;;;;7.72;3.58;;;;;;;;;;4987810;28;20158;-80
2022/03/18 14:51:22;;;;;;;8.27;3.95;;;;;;;;;;4986522;28;20061;-83
2022/03/18 14:53:48;;;;;;;8.50;3.97;;;;;;;;;;4987645;28;20034;-82
2022/03/18 14:56:26;;;;;;;7.07;3.85;;;;;;;;;;4988219;28;20391;-85
2022/03/18 14:58:51;;;;;;;6.88;4.03;;;;;;;;;;4985780;28;20117;-84
2022/03/18 15:01:17;;;;;;;6.78;3.70;;;;;;;;;;4991427;28;20109;-85
2022/03/18 15:03:43;;;;;;;8.73;3.70;;;;;;;;;;5022169;28;20479;-87